• Join FlightAware (Why Join?)
  • Login
  • US Flag 
05:04AM EDT


 

Airport Tracker/Info


-or-


 

Live Flight TrackerFlight Track Log ✈ AAL2345 ✈ 22-Apr-2013 ✈ KORD - KDFW

Flight Track Log - Related Links

Times and Time Zones

All times are in EDT time to prevent confusion due to time zone crossing. See the AAL2345 flight status page for this flight to view local times or setup timezone preferences in your user account.

Time Position Orientation Groundspeed Altitude Reporting Facility
EDT Latitude Longitude Course Direction KTS MPH feet Rate Location/Type
06:44PM 41.9333 -87.9333 194° South 174 200 2,700  Level Chicago TRACON
06:45PM 41.9000 -87.9833 228° Southwest 234 269 4,200 2,340 Climbing Chicago TRACON
06:46PM 41.7603 -88.1685 201° Southwest  Level Estimated
06:46PM 41.8367 -88.0442 216° Southwest 251 289 7,800  Level Chicago Center
06:47PM 41.6690 -88.1199 158° South  Level FlightAware Approximate
06:47PM 41.7656 -88.0428 179° South 258 297 10,600  Level Chicago Center
06:48PM 41.5956 -88.2075 197° South  Level Estimated
06:48PM 41.6908 -88.0636 192° South 278 320 13,300  Level Chicago Center
06:49PM 41.5222 -88.2948 194° South  Level Estimated
06:49PM 41.5975 -88.1017 197° South 293 337 15,400  Level Chicago Center
06:50PM 41.5039 -88.1389 197° South 352 405 17,200 1,860 Climbing Chicago Center
06:51PM 41.4100 -88.1775 197° South 367 422 19,300 2,100 Climbing Chicago Center
06:52PM 41.2917 -88.2283 198° South 381 438 21,600 1,980 Climbing Chicago Center
06:53PM 41.1886 -88.2756 199° South 394 453 23,400 1,620 Climbing Chicago Center
06:54PM 41.0819 -88.3242 199° South 404 465 25,000 1,500 Climbing Chicago Center
06:56PM 40.9764 -88.3864 204° Southwest 421 484 26,500 1,380 Climbing Chicago Center
06:57PM 40.8853 -88.4881 220° Southwest 430 495 27,900 1,680 Climbing Chicago Center
06:58PM 40.7775 -88.6081 220° Southwest 426 490 30,000 1,680 Climbing Chicago Center
06:59PM 40.6869 -88.7053 219° Southwest 422 486 31,400 960 Climbing Chicago Center
07:00PM 40.5992 -88.8022 220° Southwest 416 479 32,000 240 Climbing Chicago Center
07:01PM 40.5064 -88.9028 220° Southwest 414 476 32,000 300 Level Chicago Center
07:02PM 40.4153 -89.0022 220° Southwest 422 486 32,700 720 Climbing Chicago Center
07:03PM 40.3242 -89.1011 220° Southwest 421 484 33,600 600 Climbing Chicago Center
07:04PM 40.2344 -89.1978 219° Southwest 416 479 34,000 180 Climbing Chicago Center
07:05PM 40.1447 -89.2947 220° Southwest 415 478 34,000  Level Chicago Center
07:06PM 40.0542 -89.3908 219° Southwest 417 480 34,000  Level Chicago Center
07:07PM 39.9650 -89.4869 220° Southwest 414 476 34,000  Level Chicago Center
07:08PM 39.8581 -89.6019 220° Southwest 414 476 34,000  Level Chicago Center
07:09PM 39.7850 -89.6769 218° Southwest 415 478 34,000  Level Kansas City Center
07:10PM 39.7011 -89.7658 219° Southwest 412 474 34,000  Level Kansas City Center
07:11PM 39.5953 -89.8783 219° Southwest 410 472 34,000  Level Kansas City Center
07:12PM 39.5081 -89.9711 219° Southwest 408 470 34,000  Level Kansas City Center
07:13PM 39.4197 -90.0631 219° Southwest 408 470 34,000  Level Kansas City Center
07:14PM 39.3325 -90.1542 219° Southwest 406 467 34,000  Level Kansas City Center
07:15PM 39.2453 -90.2458 219° Southwest 406 467 34,000  Level Kansas City Center
07:16PM 39.1572 -90.3367 219° Southwest 407 468 34,000  Level Kansas City Center
07:17PM 39.0517 -90.4458 219° Southwest 408 470 34,000  Level Kansas City Center
07:18PM 38.9647 -90.5358 219° Southwest 407 468 34,000  Level Kansas City Center
07:19PM 38.8789 -90.6231 218° Southwest 392 451 34,000  Level Kansas City Center
07:20PM 38.7906 -90.7122 218° Southwest 407 468 34,000  Level Kansas City Center
07:21PM 38.7031 -90.8017 219° Southwest 412 474 34,000  Level Kansas City Center
07:22PM 38.6175 -90.8883 218° Southwest 400 460 34,000  Level Kansas City Center
07:23PM 38.5142 -90.9947 219° Southwest 400 460 34,000  Level Kansas City Center
07:24PM 38.4278 -91.0800 218° Southwest 396 456 34,000  Level Kansas City Center
07:25PM 38.3422 -91.1650 218° Southwest 394 453 34,000  Level Kansas City Center
07:26PM 38.2558 -91.2500 218° Southwest 395 455 34,000  Level Kansas City Center
07:27PM 38.1617 -91.3442 218° Southwest 394 453 34,000  Level Kansas City Center
07:28PM 38.0742 -91.4314 218° Southwest 396 456 34,000  Level Kansas City Center
07:29PM 37.9867 -91.5169 218° Southwest 394 453 34,000  Level Kansas City Center
07:30PM 37.8992 -91.6036 218° Southwest 395 455 34,000  Level Kansas City Center
07:31PM 37.8128 -91.6917 219° Southwest 395 455 34,000  Level Kansas City Center
07:32PM 37.7244 -91.7792 218° Southwest 398 458 34,000  Level Kansas City Center
07:33PM 37.6361 -91.8658 218° Southwest 398 458 34,000  Level Kansas City Center
07:34PM 37.5308 -91.9708 218° Southwest 398 458 34,000  Level Kansas City Center
07:36PM 37.4456 -92.0608 220° Southwest 397 457 34,000  Level Kansas City Center
07:37PM 37.3614 -92.1553 222° Southwest 399 459 34,000  Level Kansas City Center
07:38PM 37.2772 -92.2481 221° Southwest 400 460 34,000  Level Kansas City Center
07:39PM 37.1944 -92.3422 222° Southwest 399 459 34,000  Level Kansas City Center
07:40PM 37.1108 -92.4350 222° Southwest 399 459 34,000  Level Kansas City Center
07:41PM 37.0272 -92.5269 221° Southwest 398 458 34,000  Level Kansas City Center
07:42PM 36.9433 -92.6192 221° Southwest 397 457 34,000  Level Kansas City Center
07:43PM 36.8575 -92.7139 221° Southwest 399 459 34,000  Level Memphis Center
07:44PM 36.7747 -92.8022 221° Southwest 399 459 34,000  Level Memphis Center
07:45PM 36.6936 -92.8956 223° Southwest 399 459 34,000  Level Memphis Center
07:46PM 36.6083 -92.9858 220° Southwest 399 459 34,000  Level Memphis Center
07:47PM 36.5231 -93.0761 220° Southwest 399 459 34,000  Level Memphis Center
07:48PM 36.4314 -93.1736 221° Southwest 394 453 34,000  Level Memphis Center
07:49PM 36.3458 -93.2658 221° Southwest 400 460 34,000  Level Memphis Center
07:50PM 36.2603 -93.3556 220° Southwest 405 466 34,000  Level Memphis Center
07:51PM 36.1747 -93.4475 221° Southwest 405 466 34,000  Level Memphis Center
07:52PM 36.0869 -93.5392 220° Southwest 410 472 34,000  Level Memphis Center
07:53PM 36.0097 -93.6208 221° Southwest 415 478 34,000  Level Memphis Center
07:54PM 35.9217 -93.7122 220° Southwest 415 478 34,000  Level Memphis Center
07:55PM 35.8358 -93.8036 221° Southwest 415 478 34,000  Level Memphis Center
07:56PM 35.7500 -93.8947 221° Southwest 410 472 34,000  Level Memphis Center
07:57PM 35.6617 -93.9853 220° Southwest 410 472 34,000  Level Memphis Center
07:58PM 35.5736 -94.0733 219° Southwest 410 472 34,000  Level Memphis Center
07:59PM 35.4875 -94.1639 221° Southwest 410 472 34,000  Level Memphis Center
08:00PM 35.4033 -94.2544 221° Southwest 410 472 34,000  Level Memphis Center
08:01PM 35.3169 -94.3444 220° Southwest 410 472 34,000  Level Memphis Center
08:02PM 35.2328 -94.4394 223° Southwest 410 472 34,000  Level Memphis Center
08:03PM 35.1503 -94.5294 222° Southwest 410 472 34,000  Level Memphis Center
08:03PM 35.1133 -94.5683 221° Southwest 411 473 34,000  Level Fort Worth Center
08:04PM 35.0297 -94.6575 221° Southwest 411 473 34,000  Level Fort Worth Center
08:05PM 34.9442 -94.7514 222° Southwest 411 473 34,000  Level Fort Worth Center
08:06PM 34.8647 -94.8400 222° Southwest 421 484 34,000 -240 Level Fort Worth Center
08:07PM 34.7808 -94.9283 221° Southwest 421 484 33,600 -840 Descending Fort Worth Center
08:08PM 34.6972 -95.0192 222° Southwest 410 472 32,400 -1,200 Descending Fort Worth Center
08:09PM 34.6092 -95.1100 220° Southwest 410 472 31,200 -1,200 Descending Fort Worth Center
08:10PM 34.5253 -95.2006 222° Southwest 415 478 30,000 -1,200 Descending Fort Worth Center
08:11PM 34.4350 -95.2958 221° Southwest 420 483 28,800 -1,200 Descending Fort Worth Center
08:12PM 34.3531 -95.3836 221° Southwest 420 483 27,600 -1,200 Descending Fort Worth Center
08:13PM 34.2689 -95.4708 221° Southwest 415 478 26,500 -1,200 Descending Fort Worth Center
08:14PM 34.1806 -95.5608 220° Southwest 415 478 25,200 -1,320 Descending Fort Worth Center
08:15PM 34.0942 -95.6528 221° Southwest 420 483 23,900 -1,680 Descending Fort Worth Center
08:16PM 34.0142 -95.7397 222° Southwest 403 464 21,900 -2,040 Descending Fort Worth Center
08:17PM 33.9317 -95.8264 221° Southwest 398 458 19,900 -2,040 Descending Fort Worth Center
08:18PM 33.8514 -95.9078 220° Southwest 398 458 17,900 -1,920 Descending Fort Worth Center
08:19PM 33.7708 -95.9892 220° Southwest 392 451 16,100 -1,920 Descending Fort Worth Center
08:20PM 33.6842 -96.0806 221° Southwest 382 440 14,100 -1,800 Descending Fort Worth Center
08:21PM 33.6203 -96.1489 222° Southwest 369 425 12,600 -1,380 Descending Fort Worth Center
08:22PM 33.5417 -96.2297 221° Southwest 349 402 11,400 -840 Descending Fort Worth Center
08:23PM 33.4900 -96.2925 225° Southwest 318 366 11,000 -300 Descending Fort Worth Center
08:24PM 33.4281 -96.3656 225° Southwest 298 343 10,900 -120 Descending Fort Worth Center
08:25PM 33.3806 -96.4258 227° Southwest 279 321 10,800 -840 Descending Fort Worth Center
08:26PM 33.3228 -96.4936 224° Southwest 279 321 9,300 -1,500 Descending Fort Worth Center
08:27PM 33.2750 -96.5489 224° Southwest 272 313 7,900 -1,440 Descending Fort Worth Center
08:28PM 33.2253 -96.6089 225° Southwest 272 313 6,500 -1,440 Descending Fort Worth Center
08:29PM 33.1797 -96.6789 232° Southwest 256 295 5,100 -780 Descending Fort Worth Center
08:30PM 33.1614 -96.7483 253° West 250 288 5,000 -60 Descending Fort Worth Center
08:31PM 33.1411 -96.8378 255° West 245 282 5,000 -600 Level Fort Worth Center
08:32PM 33.0994 -96.9025 232° Southwest 245 282 3,800 -1,080 Descending Fort Worth Center
08:33PM 33.0664 -96.9647 238° Southwest 252 290 2,900 -420 Descending Fort Worth Center
08:34PM 33.0206 -97.0094 219° Southwest 211 243 3,000 60 Climbing Fort Worth Center